Portada
METAR-TAF:

METAR-TAF

Aeropuertos :

Aeropuerto Internacional de Túnez-Cartago

Túnez, Túnez

latitud: 36-50N, longitud: 010-14E, altitud: 3 m

Observación

El informe se hizo hace 28 minutos, a las 07:00 UTC
Viento 7 kt del sur, variando entre este-sureste y sur-suroeste
Temperatura 32°C
Humedad 38%
Presión 1011 hPa
Visibilidad 10 km o más
Escasas nubes a una altura de 2300 ft

METAR: DTTA 210700Z 17007KT 120V210 9999 FEW023 32/16 Q1011 NOSIG

Hora: 08:28 (07:28 UTC)

Pronóstico

El informe se hizo hace 2 horas y 21 minutos, a las 05:07 UTC
Pronóstico válido del 21 a las 06 UTC al 22 a las 06 UTC
Viento 8 kt del sur
Visibilidad 10 km o más
sin nubes por debajo de 1500 m y sin presencia de cumulonimbus.

TAF: DTTA 210507Z 2106/2206 17008KT CAVOK

Observaciones y pronósticos meteorológicos de más de 4000 aeropuertos (mensajes METAR y TAF).

Los puntos amarillos y rojos representan las estaciones disponibles.

Ponga el ratón en el punto deseado para ver el nombre de la estación.

Haga clic para ver las observaciones y los pronósticos meteorológicos.

Para cambiar el mapa : haga clic en los botones verdes con una cruz de color negro para hacer un zoom, en el botón verde con un guión para alejar o en las flechas verdes para mapas adyacentes.


METAR-TAF: